createdAt,value
2018-02-07T00:00:52.452Z,11.33
2018-02-07T00:03:18.255Z,10.53
2018-02-07T00:05:44.030Z,12.50
2018-02-07T00:08:09.842Z,11.70
2018-02-07T00:10:35.635Z,12.17
2018-02-07T00:13:01.419Z,12.20
2018-02-07T00:15:27.236Z,10.80
2018-02-07T00:17:53.015Z,12.10
2018-02-07T00:20:18.810Z,11.90
2018-02-07T00:22:44.616Z,12.40
2018-02-07T00:25:10.406Z,12.37
2018-02-07T00:27:36.241Z,12.10
2018-02-07T00:30:02.055Z,10.97
2018-02-07T00:32:27.825Z,11.00
2018-02-07T00:34:53.606Z,12.30
2018-02-07T00:37:19.380Z,12.47
2018-02-07T00:39:45.178Z,11.30
2018-02-07T00:42:10.956Z,12.70
2018-02-07T00:44:36.733Z,11.50
2018-02-07T00:47:02.550Z,11.50
2018-02-07T00:49:28.322Z,11.90
2018-02-07T00:51:54.103Z,11.87
2018-02-07T00:54:20.138Z,11.47
2018-02-07T00:56:45.928Z,12.40
2018-02-07T00:59:11.695Z,12.60
2018-02-07T01:01:37.510Z,11.03
2018-02-07T01:04:03.284Z,11.83
2018-02-07T01:06:29.074Z,12.07
2018-02-07T01:08:54.912Z,11.87
2018-02-07T01:11:20.695Z,11.40
2018-02-07T01:13:46.475Z,12.60
2018-02-07T01:16:12.282Z,12.30
2018-02-07T01:18:38.184Z,11.50
2018-02-07T01:21:03.986Z,11.03
2018-02-07T01:23:29.774Z,12.40
2018-02-07T01:25:55.559Z,13.00
2018-02-07T01:28:21.334Z,13.20
2018-02-07T01:30:47.274Z,13.43
2018-02-07T01:33:13.065Z,13.23
2018-02-07T01:35:38.852Z,12.87
2018-02-07T01:38:04.658Z,12.43
2018-02-07T01:40:30.454Z,12.70
2018-02-07T01:42:56.238Z,12.27
2018-02-07T01:45:22.034Z,13.53
2018-02-07T01:47:47.826Z,13.00
2018-02-07T01:50:13.615Z,12.97
2018-02-07T01:52:39.415Z,11.50
2018-02-07T01:55:05.195Z,12.60
2018-02-07T01:57:30.978Z,12.50
2018-02-07T01:59:56.782Z,11.70
2018-02-07T02:02:23.315Z,11.97
2018-02-07T02:04:50.099Z,12.80
2018-02-07T02:07:15.925Z,12.90
2018-02-07T02:09:41.724Z,13.30
2018-02-07T02:12:07.524Z,12.10
2018-02-07T02:14:33.446Z,13.03
2018-02-07T02:16:59.214Z,11.83
2018-02-07T02:19:24.998Z,12.03
2018-02-07T02:21:50.770Z,13.07
2018-02-07T02:24:16.534Z,12.97
2018-02-07T02:26:42.347Z,11.90
2018-02-07T02:29:08.142Z,12.10
2018-02-07T02:31:33.910Z,14.17
2018-02-07T02:33:59.976Z,11.87
2018-02-07T02:36:38.095Z,12.45
2018-02-07T02:39:03.958Z,11.15
2018-02-07T02:41:29.730Z,11.80
2018-02-07T02:43:55.551Z,13.00
2018-02-07T02:46:21.353Z,11.73
2018-02-07T02:48:47.162Z,10.83
2018-02-07T02:51:12.941Z,10.83
2018-02-07T02:53:38.721Z,11.47
2018-02-07T02:56:04.511Z,11.80
2018-02-07T02:58:30.286Z,12.70
2018-02-07T03:00:56.111Z,12.93
2018-02-07T03:03:21.931Z,11.83
2018-02-07T03:05:47.706Z,11.10
2018-02-07T03:08:13.478Z,12.80
2018-02-07T03:10:39.258Z,12.17
2018-02-07T03:13:05.035Z,11.43
2018-02-07T03:15:30.816Z,13.17
2018-02-07T03:17:56.613Z,10.90
2018-02-07T03:20:22.399Z,12.80
2018-02-07T03:22:48.178Z,11.30
2018-02-07T03:25:13.982Z,11.80
2018-02-07T03:27:39.761Z,12.10
2018-02-07T03:30:05.536Z,13.47
2018-02-07T03:32:31.345Z,10.27
2018-02-07T03:34:57.124Z,13.60
2018-02-07T03:37:22.895Z,13.10
2018-02-07T03:39:48.699Z,12.47
2018-02-07T03:42:14.489Z,13.30
2018-02-07T03:44:40.285Z,12.20
2018-02-07T03:47:06.057Z,12.23
2018-02-07T03:49:32.733Z,13.57
2018-02-07T03:51:58.514Z,12.07
2018-02-07T03:54:24.293Z,12.53
2018-02-07T03:56:50.385Z,12.77
2018-02-07T03:59:16.174Z,12.80
2018-02-07T04:01:41.963Z,12.47
2018-02-07T04:04:07.774Z,12.07
2018-02-07T04:06:33.550Z,13.53
2018-02-07T04:08:59.326Z,12.57
2018-02-07T04:11:25.105Z,13.77
2018-02-07T04:13:50.879Z,13.20
2018-02-07T04:16:16.642Z,14.40
2018-02-07T04:18:42.423Z,11.13
2018-02-07T04:21:08.206Z,12.03
2018-02-07T04:23:33.998Z,13.10
2018-02-07T04:25:59.785Z,13.37
2018-02-07T04:28:25.581Z,14.07
2018-02-07T04:30:51.418Z,14.33
2018-02-07T04:33:17.162Z,13.83
2018-02-07T04:35:42.939Z,11.53
2018-02-07T04:38:08.723Z,13.33
2018-02-07T04:40:34.565Z,12.17
2018-02-07T04:43:00.404Z,12.87
2018-02-07T04:45:26.182Z,12.77
2018-02-07T04:47:51.979Z,11.80
2018-02-07T04:50:17.826Z,12.40
2018-02-07T04:52:43.644Z,11.77
2018-02-07T04:55:09.426Z,12.83
2018-02-07T04:57:35.193Z,13.30
2018-02-07T05:00:00.975Z,12.37
2018-02-07T05:02:26.782Z,13.97
2018-02-07T05:04:52.597Z,13.13
2018-02-07T05:07:18.410Z,14.07
2018-02-07T05:09:44.230Z,13.50
2018-02-07T05:12:10.003Z,12.40
2018-02-07T05:14:35.773Z,15.00
2018-02-07T05:17:01.770Z,14.90
2018-02-07T05:19:27.554Z,14.75
2018-02-07T05:21:53.345Z,13.47
2018-02-07T05:24:19.147Z,17.63
2018-02-07T05:26:44.926Z,15.37
2018-02-07T05:29:10.699Z,11.27
2018-02-07T05:31:36.666Z,13.50
2018-02-07T05:34:02.441Z,15.07
2018-02-07T05:36:28.209Z,14.83
2018-02-07T05:38:53.997Z,15.47
2018-02-07T05:41:19.773Z,19.23
2018-02-07T05:43:45.542Z,14.00
2018-02-07T05:46:11.330Z,13.77
2018-02-07T05:48:37.111Z,13.43
2018-02-07T05:51:02.914Z,18.47
2018-02-07T05:53:28.842Z,15.80
2018-02-07T05:55:54.635Z,14.70
2018-02-07T05:58:20.435Z,15.97
2018-02-07T06:00:46.497Z,16.87
2018-02-07T06:03:12.278Z,20.50
2018-02-07T06:05:38.079Z,18.70
2018-02-07T06:08:03.862Z,17.20
2018-02-07T06:10:29.641Z,17.03
2018-02-07T06:12:55.793Z,13.50
2018-02-07T06:15:21.557Z,16.50
2018-02-07T06:17:47.349Z,15.50
2018-02-07T06:20:13.146Z,14.17
2018-02-07T06:22:38.935Z,14.77
2018-02-07T06:25:04.735Z,13.50
2018-02-07T06:27:30.522Z,11.90
2018-02-07T06:29:56.316Z,16.77
2018-02-07T06:32:22.129Z,14.27
2018-02-07T06:34:55.026Z,15.37
2018-02-07T06:37:20.842Z,13.35
2018-02-07T06:39:46.627Z,14.20
2018-02-07T06:42:12.408Z,16.20
2018-02-07T06:44:38.211Z,15.70
2018-02-07T06:47:03.987Z,15.30
2018-02-07T06:49:29.822Z,15.97
2018-02-07T06:51:55.959Z,15.67
2018-02-07T06:54:21.745Z,18.30
2018-02-07T06:56:47.507Z,19.10
2018-02-07T06:59:13.316Z,20.47
2018-02-07T07:01:39.091Z,22.90
2018-02-07T07:04:04.863Z,18.73
2018-02-07T07:06:30.771Z,16.10
2018-02-07T07:08:56.546Z,15.90
2018-02-07T07:11:22.309Z,14.27
2018-02-07T07:13:48.118Z,14.30
2018-02-07T07:16:13.902Z,16.10
2018-02-07T07:18:39.694Z,14.00
2018-02-07T07:21:05.702Z,14.67
2018-02-07T07:23:31.486Z,14.93
2018-02-07T07:25:57.477Z,15.73
2018-02-07T07:28:23.434Z,14.63
2018-02-07T07:30:49.257Z,15.07
2018-02-07T07:33:15.049Z,17.53
2018-02-07T07:35:40.846Z,16.40
2018-02-07T07:38:06.627Z,15.90
2018-02-07T07:40:32.422Z,16.00
2018-02-07T07:42:58.207Z,14.80
2018-02-07T07:45:23.987Z,14.90
2018-02-07T07:47:49.774Z,14.70
2018-02-07T07:50:15.565Z,15.30
2018-02-07T07:52:41.358Z,15.93
2018-02-07T07:55:07.145Z,16.47
2018-02-07T07:57:32.922Z,16.77
2018-02-07T07:59:58.730Z,15.73
2018-02-07T08:02:24.515Z,15.50
2018-02-07T08:04:50.297Z,15.23
2018-02-07T08:07:16.062Z,14.93
2018-02-07T08:09:41.845Z,13.83
2018-02-07T08:12:07.642Z,16.37
2018-02-07T08:14:33.437Z,14.50
2018-02-07T08:16:59.219Z,15.30
2018-02-07T08:19:25.019Z,15.07
2018-02-07T08:21:50.789Z,16.17
2018-02-07T08:24:16.581Z,15.77
2018-02-07T08:26:42.373Z,16.17
2018-02-07T08:29:08.150Z,17.60
2018-02-07T08:31:33.954Z,18.60
2018-02-07T08:33:59.926Z,17.80
2018-02-07T08:36:25.705Z,14.15
2018-02-07T08:38:51.494Z,17.80
2018-02-07T08:41:17.273Z,14.77
2018-02-07T08:43:43.050Z,16.10
2018-02-07T08:46:08.838Z,13.50
2018-02-07T08:48:34.634Z,14.07
2018-02-07T08:51:00.426Z,15.17
2018-02-07T08:53:26.210Z,16.07
2018-02-07T08:55:52.031Z,15.73
2018-02-07T08:58:17.810Z,15.77
2018-02-07T09:00:43.591Z,13.87
2018-02-07T09:03:09.366Z,14.37
2018-02-07T09:05:35.138Z,17.47
2018-02-07T09:08:00.931Z,15.03
2018-02-07T09:10:26.887Z,13.37
2018-02-07T09:12:52.653Z,10.50
2018-02-07T09:15:18.434Z,12.37
2018-02-07T09:17:44.234Z,13.47
2018-02-07T09:20:10.018Z,13.27
2018-02-07T09:22:35.804Z,13.53
2018-02-07T09:25:01.592Z,11.90
2018-02-07T09:27:27.389Z,13.60
2018-02-07T09:29:53.167Z,13.47
2018-02-07T09:32:18.956Z,13.70
2018-02-07T09:34:44.788Z,13.80
2018-02-07T09:37:10.570Z,12.73
2018-02-07T09:39:36.392Z,14.07
2018-02-07T09:42:02.318Z,13.47
2018-02-07T09:44:28.117Z,13.93
2018-02-07T09:46:53.918Z,12.47
2018-02-07T09:49:19.731Z,13.50
2018-02-07T09:51:45.520Z,14.33
2018-02-07T09:54:11.295Z,13.43
2018-02-07T09:56:37.087Z,12.10
2018-02-07T09:59:02.849Z,12.03
2018-02-07T10:01:28.622Z,12.77
2018-02-07T10:03:54.685Z,12.30
2018-02-07T10:06:20.462Z,12.85
2018-02-07T10:08:46.269Z,13.20
2018-02-07T10:11:12.055Z,12.00
2018-02-07T10:13:37.850Z,12.70
2018-02-07T10:16:03.667Z,11.97
2018-02-07T10:18:29.445Z,11.50
2018-02-07T10:20:55.242Z,11.33
2018-02-07T10:23:21.051Z,11.90
2018-02-07T10:25:46.845Z,13.60
2018-02-07T10:28:12.628Z,12.83
2018-02-07T10:30:38.674Z,10.67
2018-02-07T10:33:04.479Z,12.15
2018-02-07T10:35:30.267Z,11.93
2018-02-07T10:37:56.073Z,13.00
2018-02-07T10:40:21.862Z,12.40
2018-02-07T10:42:47.641Z,11.80
2018-02-07T10:45:13.462Z,12.53
2018-02-07T10:47:39.271Z,12.23
2018-02-07T10:50:05.334Z,11.13
2018-02-07T10:52:31.152Z,11.57
2018-02-07T10:54:57.355Z,11.40
2018-02-07T10:57:24.232Z,15.40
2018-02-07T10:59:50.047Z,13.52
2018-02-07T11:02:15.851Z,13.33
2018-02-07T11:04:41.637Z,12.67
2018-02-07T11:07:07.649Z,11.80
2018-02-07T11:09:33.825Z,11.70
2018-02-07T11:11:59.603Z,13.82
2018-02-07T11:14:25.378Z,11.20
2018-02-07T11:16:51.446Z,11.73
2018-02-07T11:19:17.276Z,11.73
2018-02-07T11:21:43.302Z,12.17
2018-02-07T11:24:09.102Z,13.88
2018-02-07T11:26:34.950Z,11.40
2018-02-07T11:29:00.742Z,11.73
2018-02-07T11:31:26.615Z,12.67
2018-02-07T11:33:52.751Z,11.23
2018-02-07T11:36:18.563Z,14.10
2018-02-07T11:38:44.345Z,13.77
2018-02-07T11:41:10.130Z,12.17
2018-02-07T11:43:36.208Z,8.27
2018-02-07T11:46:02.074Z,11.07
2018-02-07T11:48:27.860Z,10.70
2018-02-07T11:50:53.658Z,10.80
2018-02-07T11:53:19.984Z,11.00
2018-02-07T11:55:45.772Z,11.80
2018-02-07T11:58:11.740Z,11.40
2018-02-07T12:00:37.566Z,11.27
2018-02-07T12:03:03.350Z,10.60
2018-02-07T12:05:29.140Z,10.40
2018-02-07T12:07:54.967Z,11.20
2018-02-07T12:10:21.057Z,10.10
2018-02-07T12:12:46.880Z,9.57
2018-02-07T12:15:12.883Z,9.50
2018-02-07T12:17:38.672Z,10.37
2018-02-07T12:20:04.463Z,9.80
2018-02-07T12:22:30.279Z,10.23
2018-02-07T12:24:56.079Z,9.30
2018-02-07T12:27:21.887Z,10.17
2018-02-07T12:29:47.679Z,10.30
2018-02-07T12:32:13.807Z,9.90
2018-02-07T12:34:39.874Z,9.25
2018-02-07T12:37:05.685Z,12.35
2018-02-07T12:39:31.495Z,11.30
2018-02-07T12:41:57.299Z,11.90
2018-02-07T12:44:23.334Z,11.80
2018-02-07T12:46:49.516Z,11.40
2018-02-07T12:49:15.910Z,11.67
2018-02-07T12:51:41.733Z,10.67
2018-02-07T12:54:07.510Z,11.87
2018-02-07T12:56:33.631Z,11.10
2018-02-07T12:58:59.870Z,11.50
2018-02-07T13:01:26.032Z,12.30
2018-02-07T13:03:52.386Z,12.03
2018-02-07T13:06:18.206Z,11.97
2018-02-07T13:08:43.997Z,13.40
2018-02-07T13:11:09.815Z,14.17
2018-02-07T13:13:35.590Z,32.73
2018-02-07T13:16:01.644Z,17.70
2018-02-07T13:18:27.751Z,13.97
2018-02-07T13:20:53.574Z,34.23
2018-02-07T13:23:19.362Z,43.73
2018-02-07T13:25:45.162Z,44.70
2018-02-07T13:28:11.153Z,27.27
2018-02-07T13:30:36.957Z,24.73
2018-02-07T13:33:02.753Z,38.17
2018-02-07T13:35:28.459Z,11.53
2018-02-07T13:37:54.452Z,12.03
2018-02-07T13:40:21.428Z,11.20
2018-02-07T13:42:47.117Z,12.87
2018-02-07T13:45:12.799Z,12.60
2018-02-07T13:47:38.874Z,11.17
2018-02-07T13:50:04.635Z,10.60
2018-02-07T13:52:30.284Z,10.47
2018-02-07T13:54:55.988Z,10.27
2018-02-07T13:57:21.673Z,10.70
2018-02-07T13:59:47.344Z,11.20
2018-02-07T14:02:13.065Z,11.47
2018-02-07T14:04:38.740Z,11.60
2018-02-07T14:07:04.436Z,11.80
2018-02-07T14:09:30.217Z,10.90
2018-02-07T14:11:55.916Z,11.23
2018-02-07T14:14:21.576Z,10.93
2018-02-07T14:16:47.269Z,12.30
2018-02-07T14:19:12.986Z,11.70
2018-02-07T14:21:38.825Z,11.00
2018-02-07T14:24:04.544Z,9.83
2018-02-07T14:26:30.238Z,11.63
2018-02-07T14:28:56.949Z,10.40
2018-02-07T14:31:22.621Z,12.00
2018-02-07T14:33:48.300Z,12.83
2018-02-07T14:36:13.985Z,10.60
2018-02-07T14:38:39.698Z,11.53
2018-02-07T14:41:05.401Z,10.50
2018-02-07T14:43:31.113Z,13.93
2018-02-07T14:45:56.819Z,12.03
2018-02-07T14:48:22.492Z,11.10
2018-02-07T14:50:48.972Z,10.37
2018-02-07T14:53:14.736Z,11.27
2018-02-07T14:55:40.427Z,11.73
2018-02-07T14:58:06.346Z,13.23
2018-02-07T15:00:32.061Z,12.20
2018-02-07T15:02:57.737Z,11.57
2018-02-07T15:05:23.414Z,10.23
2018-02-07T15:07:49.134Z,12.13
2018-02-07T15:10:14.931Z,14.03
2018-02-07T15:12:40.629Z,16.43
2018-02-07T15:15:06.601Z,13.23
2018-02-07T15:17:32.273Z,11.70
2018-02-07T15:19:57.952Z,10.37
2018-02-07T15:22:24.260Z,11.17
2018-02-07T15:24:49.979Z,11.15
2018-02-07T15:27:15.769Z,10.13
2018-02-07T15:29:41.704Z,11.03
2018-02-07T15:32:07.384Z,10.77
2018-02-07T15:34:33.058Z,11.23
2018-02-07T15:36:58.761Z,10.50
2018-02-07T15:39:24.442Z,10.50
2018-02-07T15:41:50.130Z,11.90
2018-02-07T15:44:16.094Z,10.90
2018-02-07T15:46:41.805Z,11.33
2018-02-07T15:49:07.494Z,12.50
2018-02-07T15:51:33.672Z,10.13
2018-02-07T15:53:59.349Z,11.18
2018-02-07T15:56:25.050Z,11.80
2018-02-07T15:58:51.005Z,10.50
2018-02-07T16:01:16.940Z,10.10
2018-02-07T16:03:42.707Z,10.13
2018-02-07T16:06:08.473Z,19.60
2018-02-07T16:08:34.189Z,12.73
2018-02-07T16:11:00.857Z,10.63
2018-02-07T16:13:26.823Z,12.57
2018-02-07T16:15:52.520Z,11.95
2018-02-07T16:18:18.202Z,15.27
2018-02-07T16:20:44.360Z,12.03
2018-02-07T16:23:10.040Z,9.23
2018-02-07T16:25:35.741Z,10.10
2018-02-07T16:28:01.453Z,11.03
2018-02-07T16:30:27.417Z,9.00
2018-02-07T16:32:53.169Z,9.10
2018-02-07T16:35:19.091Z,13.50
2018-02-07T16:37:44.802Z,11.10
2018-02-07T16:40:10.937Z,9.27
2018-02-07T16:42:36.632Z,8.95
2018-02-07T16:45:02.763Z,9.50
2018-02-07T16:47:28.544Z,8.88
2018-02-07T16:49:54.242Z,10.00
2018-02-07T16:52:20.215Z,10.63
2018-02-07T16:54:46.656Z,9.15
2018-02-07T16:57:12.562Z,10.88
2018-02-07T16:59:38.317Z,10.30
2018-02-07T17:02:04.279Z,11.50
2018-02-07T17:04:30.113Z,10.33
2018-02-07T17:06:55.900Z,9.47
2018-02-07T17:09:21.737Z,10.40
2018-02-07T17:11:47.669Z,10.83
2018-02-07T17:14:13.370Z,9.60
2018-02-07T17:16:39.254Z,11.00
2018-02-07T17:19:04.979Z,10.20
2018-02-07T17:21:30.781Z,10.33
2018-02-07T17:23:56.632Z,9.73
2018-02-07T17:26:22.382Z,10.17
2018-02-07T17:28:48.076Z,11.00
2018-02-07T17:31:14.246Z,9.50
2018-02-07T17:33:40.099Z,12.15
2018-02-07T17:36:06.213Z,11.13
2018-02-07T17:38:31.913Z,11.95
2018-02-07T17:40:57.593Z,11.70
2018-02-07T17:43:23.278Z,11.40
2018-02-07T17:45:49.266Z,12.93
2018-02-07T17:48:14.989Z,18.12
2018-02-07T17:50:41.040Z,22.77
2018-02-07T17:53:06.757Z,12.65
2018-02-07T17:55:32.435Z,14.20
2018-02-07T17:57:58.117Z,14.93
2018-02-07T18:00:24.353Z,16.50
2018-02-07T18:02:50.037Z,13.57
2018-02-07T18:05:15.733Z,11.80
2018-02-07T18:07:41.424Z,17.00
2018-02-07T18:10:08.064Z,16.07
2018-02-07T18:12:33.744Z,18.50
2018-02-07T18:14:59.429Z,15.53
2018-02-07T18:17:25.146Z,14.60
2018-02-07T18:19:50.838Z,21.17
2018-02-07T18:22:16.508Z,14.87
2018-02-07T18:24:42.376Z,12.30
2018-02-07T18:27:08.057Z,11.77
2018-02-07T18:29:33.732Z,12.13
2018-02-07T18:31:59.701Z,12.43
2018-02-07T18:34:25.381Z,12.10
2018-02-07T18:36:51.099Z,13.10
2018-02-07T18:39:17.165Z,13.67
2018-02-07T18:41:42.845Z,13.68
2018-02-07T18:44:08.538Z,12.50
2018-02-07T18:46:34.253Z,12.73
2018-02-07T18:48:59.947Z,13.80
2018-02-07T18:51:25.632Z,11.53
2018-02-07T18:53:51.364Z,14.07
2018-02-07T18:56:17.049Z,12.23
2018-02-07T18:58:42.720Z,14.13
2018-02-07T19:01:08.404Z,12.93
2018-02-07T19:03:34.087Z,14.90
2018-02-07T19:05:59.770Z,14.70
2018-02-07T19:08:25.754Z,16.80
2018-02-07T19:10:51.438Z,16.75
2018-02-07T19:13:17.119Z,16.77
2018-02-07T19:15:42.853Z,16.20
2018-02-07T19:18:08.533Z,15.90
2018-02-07T19:20:34.215Z,16.30
2018-02-07T19:23:00.157Z,16.40
2018-02-07T19:25:25.857Z,18.03
2018-02-07T19:27:51.545Z,19.33
2018-02-07T19:30:17.282Z,17.30
2018-02-07T19:32:42.985Z,16.47
2018-02-07T19:35:08.763Z,18.30
2018-02-07T19:37:34.475Z,16.03
2018-02-07T19:40:00.169Z,15.30
2018-02-07T19:42:26.033Z,16.60
2018-02-07T19:44:51.781Z,16.70
2018-02-07T19:47:17.472Z,16.50
2018-02-07T19:49:43.436Z,17.20
2018-02-07T19:52:09.118Z,18.03
2018-02-07T19:54:34.801Z,16.30
2018-02-07T19:57:00.942Z,18.77
2018-02-07T19:59:26.637Z,17.45
2018-02-07T20:01:52.693Z,15.90
2018-02-07T20:04:18.415Z,17.60
2018-02-07T20:06:44.356Z,16.90
2018-02-07T20:09:10.188Z,16.73
2018-02-07T20:11:35.928Z,17.67
2018-02-07T20:14:01.630Z,18.10
2018-02-07T20:16:27.410Z,16.50
2018-02-07T20:18:53.277Z,18.37
2018-02-07T20:21:18.967Z,18.77
2018-02-07T20:23:44.883Z,17.37
2018-02-07T20:26:10.614Z,17.60
2018-02-07T20:28:36.307Z,17.97
2018-02-07T20:31:02.205Z,17.43
2018-02-07T20:33:28.420Z,17.47
2018-02-07T20:35:54.153Z,17.45
2018-02-07T20:38:19.841Z,16.90
2018-02-07T20:40:45.867Z,16.67
2018-02-07T20:43:11.565Z,17.65
2018-02-07T20:45:37.255Z,19.27
2018-02-07T20:48:03.105Z,18.67
2018-02-07T20:50:28.810Z,19.80
2018-02-07T20:52:54.497Z,21.50
2018-02-07T20:55:20.210Z,21.50
2018-02-07T20:57:45.913Z,21.60
2018-02-07T21:00:11.609Z,21.43
2018-02-07T21:02:37.340Z,20.33
2018-02-07T21:05:03.097Z,19.57
2018-02-07T21:07:28.800Z,21.53
2018-02-07T21:09:54.571Z,20.40
2018-02-07T21:12:20.273Z,21.97
2018-02-07T21:14:45.961Z,20.23
2018-02-07T21:17:11.681Z,22.47
2018-02-07T21:19:37.361Z,23.30
2018-02-07T21:22:03.034Z,22.90
2018-02-07T21:24:28.751Z,20.23
2018-02-07T21:26:54.504Z,19.17
2018-02-07T21:29:20.293Z,20.03
2018-02-07T21:31:46.037Z,20.30
2018-02-07T21:34:12.066Z,20.27
2018-02-07T21:36:37.813Z,19.35
2018-02-07T21:39:03.808Z,20.70
2018-02-07T21:41:29.609Z,21.77
2018-02-07T21:43:55.317Z,21.60
2018-02-07T21:46:21.043Z,18.93
2018-02-07T21:48:46.745Z,20.77
2018-02-07T21:51:12.437Z,22.73
2018-02-07T21:53:38.245Z,22.70
2018-02-07T21:56:04.613Z,23.73
2018-02-07T21:58:30.329Z,22.65
2018-02-07T22:00:56.802Z,21.23
2018-02-07T22:03:22.525Z,24.35
2018-02-07T22:05:48.221Z,22.17
2018-02-07T22:08:13.963Z,23.13
2018-02-07T22:10:46.504Z,24.00
2018-02-07T22:13:12.873Z,20.58
2018-02-07T22:15:38.633Z,21.48
2018-02-07T22:18:05.158Z,19.60
2018-02-07T22:20:30.849Z,17.70
2018-02-07T22:22:56.564Z,19.13
2018-02-07T22:25:22.247Z,23.40
2018-02-07T22:27:54.750Z,22.80
2018-02-07T22:30:21.489Z,21.65
2018-02-07T22:32:48.303Z,21.50
2018-02-07T22:35:14.041Z,19.37
2018-02-07T22:37:40.156Z,20.00
2018-02-07T22:40:06.184Z,20.48
2018-02-07T22:42:32.813Z,24.42
2018-02-07T22:44:58.496Z,26.20
2018-02-07T22:47:25.371Z,23.80
2018-02-07T22:49:51.113Z,24.48
2018-02-07T22:52:16.788Z,24.67
2018-02-07T22:54:42.528Z,21.63
2018-02-07T22:57:08.868Z,21.30
2018-02-07T22:59:34.566Z,21.80
2018-02-07T23:02:00.690Z,25.40
2018-02-07T23:04:26.601Z,25.60
2018-02-07T23:06:52.270Z,27.20
2018-02-07T23:09:18.615Z,27.67
2018-02-07T23:11:44.312Z,25.55
2018-02-07T23:14:10.381Z,27.10
2018-02-07T23:16:36.060Z,28.52
2018-02-07T23:19:02.708Z,26.27
2018-02-07T23:21:28.445Z,26.12
2018-02-07T23:23:54.117Z,26.60
2018-02-07T23:26:19.804Z,26.80
2018-02-07T23:28:45.489Z,27.43
2018-02-07T23:31:11.152Z,28.90
2018-02-07T23:33:36.857Z,27.40
2018-02-07T23:36:02.579Z,27.27
2018-02-07T23:38:28.270Z,29.17
2018-02-07T23:41:00.778Z,26.43
2018-02-07T23:43:26.465Z,24.50
2018-02-07T23:45:52.152Z,26.73
2018-02-07T23:48:17.828Z,25.87
2018-02-07T23:50:43.526Z,24.40
2018-02-07T23:53:09.218Z,26.10
2018-02-07T23:55:34.907Z,25.43
2018-02-07T23:58:00.580Z,26.77
